createdAt,value
2022-08-27T00:02:17.685Z,19.55
2022-08-27T00:04:46.045Z,19.68
2022-08-27T00:07:14.011Z,19.78
2022-08-27T00:09:40.968Z,19.86
2022-08-27T00:12:08.708Z,19.95
2022-08-27T00:14:37.147Z,20.01
2022-08-27T00:17:05.656Z,20.04
2022-08-27T00:19:33.170Z,19.97
2022-08-27T00:22:00.272Z,20.10
2022-08-27T00:24:27.221Z,20.04
2022-08-27T00:26:54.174Z,20.15
2022-08-27T00:29:21.323Z,20.16
2022-08-27T00:31:52.722Z,20.18
2022-08-27T00:34:20.814Z,20.13
2022-08-27T00:36:48.637Z,20.11
2022-08-27T00:39:16.035Z,20.12
2022-08-27T00:41:43.574Z,20.12
2022-08-27T00:44:11.402Z,20.17
2022-08-27T00:46:38.935Z,20.13
2022-08-27T00:49:11.670Z,20.08
2022-08-27T00:51:39.264Z,20.05
2022-08-27T00:54:07.425Z,20.06
2022-08-27T00:56:48.667Z,20.06
2022-08-27T00:59:21.829Z,20.01
2022-08-27T01:02:15.728Z,20.03
2022-08-27T01:04:44.817Z,20.04
2022-08-27T01:07:11.725Z,20.03
2022-08-27T01:09:39.435Z,19.98
2022-08-27T01:12:06.687Z,20.06
2022-08-27T01:14:33.745Z,19.99
2022-08-27T01:17:01.597Z,19.80
2022-08-27T01:19:51.498Z,19.83
2022-08-27T01:22:21.648Z,19.84
2022-08-27T01:24:52.638Z,19.82
2022-08-27T01:29:48.785Z,19.87
2022-08-27T01:32:20.857Z,19.89
2022-08-27T01:34:48.290Z,19.95
2022-08-27T01:37:16.067Z,19.96
2022-08-27T01:39:50.760Z,19.91
2022-08-27T01:42:44.155Z,19.96
2022-08-27T01:45:13.349Z,19.88
2022-08-27T01:47:40.761Z,19.92
2022-08-27T01:50:09.820Z,19.99
2022-08-27T01:52:37.283Z,20.01
2022-08-27T01:55:05.937Z,19.97
2022-08-27T01:57:33.762Z,20.04
2022-08-27T02:00:01.549Z,20.03
2022-08-27T02:02:28.541Z,19.99
2022-08-27T02:04:55.541Z,20.01
2022-08-27T02:07:22.710Z,20.03
2022-08-27T02:09:50.843Z,20.02
2022-08-27T02:12:17.706Z,20.01
2022-08-27T02:14:44.972Z,19.96
2022-08-27T02:17:12.595Z,19.85
2022-08-27T02:19:39.443Z,19.84
2022-08-27T02:22:07.512Z,19.85
2022-08-27T02:24:34.466Z,19.89
2022-08-27T02:27:02.073Z,19.94
2022-08-27T02:29:29.183Z,19.96
2022-08-27T02:31:56.282Z,20.01
2022-08-27T02:34:23.436Z,19.96
2022-08-27T02:36:50.705Z,19.95
2022-08-27T02:39:17.821Z,19.99
2022-08-27T02:41:44.677Z,19.98
2022-08-27T02:44:12.085Z,19.96
2022-08-27T02:46:41.796Z,19.96
2022-08-27T02:49:09.649Z,20.01
2022-08-27T02:51:37.153Z,20.01
2022-08-27T02:54:04.074Z,19.97
2022-08-27T02:56:30.966Z,19.92
2022-08-27T02:58:59.602Z,19.96
2022-08-27T03:01:26.542Z,19.92
2022-08-27T03:03:53.578Z,19.88
2022-08-27T03:06:20.633Z,19.92
2022-08-27T03:08:52.865Z,19.90
2022-08-27T03:11:21.838Z,19.92
2022-08-27T03:13:49.078Z,19.90
2022-08-27T03:16:16.226Z,19.92
2022-08-27T03:18:43.267Z,19.94
2022-08-27T03:21:16.715Z,19.92
2022-08-27T03:23:43.624Z,19.87
2022-08-27T03:26:11.033Z,19.89
2022-08-27T03:28:38.840Z,19.92
2022-08-27T03:31:07.001Z,19.88
2022-08-27T03:33:38.535Z,19.87
2022-08-27T03:36:07.669Z,19.84
2022-08-27T03:38:35.062Z,19.79
2022-08-27T03:41:02.772Z,19.79
2022-08-27T03:43:30.077Z,19.84
2022-08-27T03:46:00.954Z,19.79
2022-08-27T03:48:30.636Z,19.81
2022-08-27T03:50:58.435Z,19.84
2022-08-27T03:53:26.254Z,19.81
2022-08-27T03:55:53.149Z,19.78
2022-08-27T03:58:20.411Z,19.81
2022-08-27T04:00:47.488Z,19.80
2022-08-27T04:03:14.999Z,19.79
2022-08-27T04:05:45.306Z,19.78
2022-08-27T04:08:13.584Z,19.76
2022-08-27T04:10:41.663Z,19.77
2022-08-27T04:13:09.177Z,19.80
2022-08-27T04:15:40.712Z,19.81
2022-08-27T04:18:08.256Z,19.86
2022-08-27T04:20:36.374Z,19.73
2022-08-27T04:23:04.216Z,19.72
2022-08-27T04:25:31.590Z,19.64
2022-08-27T04:27:59.195Z,19.67
2022-08-27T04:30:26.167Z,19.67
2022-08-27T04:32:53.068Z,19.56
2022-08-27T04:35:20.287Z,19.57
2022-08-27T04:37:47.281Z,19.59
2022-08-27T04:40:14.132Z,19.74
2022-08-27T04:42:41.330Z,19.79
2022-08-27T04:45:08.581Z,19.83
2022-08-27T04:47:36.094Z,19.91
2022-08-27T04:50:05.784Z,19.88
2022-08-27T04:52:33.410Z,19.88
2022-08-27T04:55:08.406Z,19.90
2022-08-27T04:57:36.302Z,19.92
2022-08-27T05:00:03.763Z,19.89
2022-08-27T05:02:31.165Z,19.94
2022-08-27T05:04:58.085Z,19.93
2022-08-27T05:07:25.085Z,19.96
2022-08-27T05:09:52.604Z,19.95
2022-08-27T05:12:19.991Z,19.90
2022-08-27T05:14:47.234Z,19.89
2022-08-27T05:17:14.525Z,19.91
2022-08-27T05:19:41.317Z,19.93
2022-08-27T05:22:08.493Z,19.84
2022-08-27T05:24:35.778Z,19.82
2022-08-27T05:27:02.562Z,19.85
2022-08-27T05:29:29.427Z,19.83
2022-08-27T05:31:56.663Z,19.71
2022-08-27T05:34:26.964Z,19.61
2022-08-27T05:36:54.660Z,19.53
2022-08-27T05:39:21.904Z,19.51
2022-08-27T05:41:48.830Z,19.47
2022-08-27T05:44:40.626Z,19.27
2022-08-27T05:47:05.198Z,19.26
2022-08-27T05:49:32.397Z,19.16
2022-08-27T05:51:59.506Z,19.22
2022-08-27T05:54:26.647Z,19.35
2022-08-27T05:56:54.012Z,19.50
2022-08-27T05:59:39.464Z,19.53
2022-08-27T06:02:07.370Z,19.50
2022-08-27T06:04:34.838Z,19.46
2022-08-27T06:07:02.364Z,19.45
2022-08-27T06:09:29.718Z,19.47
2022-08-27T06:11:57.982Z,19.53
2022-08-27T06:14:24.978Z,19.52
2022-08-27T06:16:52.384Z,19.57
2022-08-27T06:19:19.622Z,19.63
2022-08-27T06:21:46.549Z,19.70
2022-08-27T06:24:27.787Z,19.80
2022-08-27T06:26:54.726Z,19.87
2022-08-27T06:29:23.804Z,19.97
2022-08-27T06:31:52.994Z,20.05
2022-08-27T06:34:20.409Z,20.13
2022-08-27T06:36:47.337Z,20.21
2022-08-27T06:39:16.928Z,20.17
2022-08-27T06:41:44.321Z,20.23
2022-08-27T06:44:12.215Z,20.27
2022-08-27T06:46:40.113Z,20.32
2022-08-27T06:49:07.224Z,20.34
2022-08-27T06:51:35.935Z,20.36
2022-08-27T06:54:05.307Z,20.39
2022-08-27T06:56:32.543Z,20.42
2022-08-27T06:59:01.002Z,20.49
2022-08-27T07:01:30.685Z,20.65
2022-08-27T07:03:58.990Z,20.80
2022-08-27T07:06:27.116Z,20.98
2022-08-27T07:08:54.955Z,21.03
2022-08-27T07:11:22.360Z,21.04
2022-08-27T07:13:49.827Z,21.08
2022-08-27T07:16:19.526Z,21.04
2022-08-27T07:18:50.524Z,21.15
2022-08-27T07:21:20.432Z,21.20
2022-08-27T07:23:48.728Z,21.29
2022-08-27T07:26:16.280Z,21.30
2022-08-27T07:28:44.353Z,21.28
2022-08-27T07:31:13.057Z,21.33
2022-08-27T07:33:42.123Z,21.34
2022-08-27T07:36:14.586Z,21.41
2022-08-27T07:38:41.566Z,21.47
2022-08-27T07:41:09.883Z,21.58
2022-08-27T07:43:56.173Z,21.60
2022-08-27T07:46:24.178Z,21.64
2022-08-27T07:48:51.951Z,21.68
2022-08-27T07:51:20.350Z,21.64
2022-08-27T07:53:47.644Z,21.65
2022-08-27T07:56:15.230Z,21.59
2022-08-27T07:58:42.377Z,21.48
2022-08-27T08:01:09.492Z,21.40
2022-08-27T08:03:36.818Z,21.25
2022-08-27T08:06:06.517Z,21.20
2022-08-27T08:08:34.758Z,21.26
2022-08-27T08:11:03.885Z,21.26
2022-08-27T08:13:31.668Z,21.21
2022-08-27T08:15:59.784Z,21.29
2022-08-27T08:18:27.705Z,21.35
2022-08-27T08:21:05.862Z,21.34
2022-08-27T08:23:33.922Z,21.21
2022-08-27T08:26:01.441Z,21.19
2022-08-27T08:28:29.371Z,21.04
2022-08-27T08:30:57.180Z,21.13
2022-08-27T08:33:24.617Z,21.03
2022-08-27T08:35:52.154Z,21.13
2022-08-27T08:38:19.592Z,21.21
2022-08-27T08:40:49.859Z,21.24
2022-08-27T08:43:38.200Z,21.26
2022-08-27T08:46:22.503Z,21.41
2022-08-27T08:48:53.373Z,21.63
2022-08-27T08:51:26.914Z,21.75
2022-08-27T08:54:04.926Z,21.93
2022-08-27T08:56:40.449Z,21.99
2022-08-27T08:59:25.719Z,22.03
2022-08-27T09:01:53.172Z,22.14
2022-08-27T09:04:20.284Z,22.32
2022-08-27T09:06:50.491Z,22.70
2022-08-27T09:09:24.081Z,23.43
2022-08-27T09:12:09.949Z,23.94
2022-08-27T09:14:46.513Z,24.89
2022-08-27T09:17:13.865Z,26.73
2022-08-27T09:19:41.627Z,27.50
2022-08-27T09:22:28.544Z,26.98
2022-08-27T09:24:55.804Z,26.24
2022-08-27T09:27:23.672Z,25.75
2022-08-27T09:29:54.582Z,25.41
2022-08-27T09:32:25.726Z,25.12
2022-08-27T09:34:57.116Z,24.81
2022-08-27T09:37:34.295Z,24.51
2022-08-27T09:40:13.701Z,24.70
2022-08-27T09:42:53.509Z,25.22
2022-08-27T09:45:23.825Z,25.71
2022-08-27T09:47:53.345Z,25.88
2022-08-27T09:50:22.518Z,25.87
2022-08-27T09:52:57.409Z,26.06
2022-08-27T09:55:36.991Z,26.27
2022-08-27T09:58:06.202Z,26.49
2022-08-27T10:00:40.225Z,26.73
2022-08-27T10:03:08.855Z,26.99
2022-08-27T10:05:38.334Z,27.24
2022-08-27T10:08:14.026Z,27.69
2022-08-27T10:10:44.535Z,28.36
2022-08-27T10:13:15.554Z,29.29
2022-08-27T10:15:49.403Z,30.98
2022-08-27T10:18:28.806Z,30.82
2022-08-27T10:21:07.869Z,29.92
2022-08-27T10:23:38.008Z,29.41
2022-08-27T10:26:23.289Z,29.35
2022-08-27T10:28:57.382Z,29.14
2022-08-27T10:31:28.184Z,28.76
2022-08-27T10:34:01.269Z,28.30
2022-08-27T10:36:44.765Z,28.03
2022-08-27T10:39:15.033Z,28.04
2022-08-27T10:41:46.235Z,27.95
2022-08-27T10:44:26.793Z,27.83
2022-08-27T10:47:12.767Z,28.41
2022-08-27T10:49:46.958Z,29.07
2022-08-27T10:52:23.325Z,29.64
2022-08-27T10:54:50.707Z,29.76
2022-08-27T10:57:39.988Z,30.10
2022-08-27T11:00:11.494Z,30.74
2022-08-27T11:02:48.444Z,30.63
2022-08-27T11:05:17.810Z,30.47
2022-08-27T11:07:47.911Z,30.08
2022-08-27T11:10:33.201Z,29.99
2022-08-27T11:13:09.252Z,29.74
2022-08-27T11:15:42.020Z,30.89
2022-08-27T11:18:17.197Z,30.83
2022-08-27T11:20:44.278Z,29.66
2022-08-27T11:23:15.294Z,28.97
2022-08-27T11:25:58.334Z,28.36
2022-08-27T11:28:31.999Z,27.96
2022-08-27T11:31:06.820Z,28.52
2022-08-27T11:33:44.099Z,30.13
2022-08-27T11:36:16.428Z,30.73
2022-08-27T11:39:02.335Z,30.51
2022-08-27T11:41:44.986Z,29.84
2022-08-27T11:44:14.227Z,28.90
2022-08-27T11:46:46.182Z,28.15
2022-08-27T11:49:24.250Z,27.29
2022-08-27T11:52:00.027Z,27.06
2022-08-27T11:54:31.986Z,27.27
2022-08-27T11:56:59.249Z,27.61
2022-08-27T11:59:26.833Z,27.97
2022-08-27T12:01:55.902Z,28.28
2022-08-27T12:04:32.145Z,28.61
2022-08-27T12:07:05.608Z,29.03
2022-08-27T12:09:47.864Z,29.59
2022-08-27T12:12:21.026Z,30.14
2022-08-27T12:14:51.908Z,30.70
2022-08-27T12:17:18.984Z,32.14
2022-08-27T12:19:48.943Z,32.11
2022-08-27T12:22:19.101Z,30.90
2022-08-27T12:24:56.409Z,29.59
2022-08-27T12:27:26.733Z,28.64
2022-08-27T12:30:12.692Z,28.03
2022-08-27T12:32:40.971Z,27.52
2022-08-27T12:35:10.994Z,27.16
2022-08-27T12:37:45.242Z,26.83
2022-08-27T12:40:19.484Z,26.63
2022-08-27T12:42:48.146Z,26.62
2022-08-27T12:45:23.924Z,26.71
2022-08-27T12:47:51.852Z,26.91
2022-08-27T12:50:26.915Z,27.10
2022-08-27T12:53:00.350Z,27.34
2022-08-27T12:55:27.556Z,27.40
2022-08-27T12:57:57.321Z,27.43
2022-08-27T13:00:26.516Z,27.70
2022-08-27T13:03:07.458Z,27.80
2022-08-27T13:05:39.772Z,27.59
2022-08-27T13:08:25.783Z,27.40
2022-08-27T13:10:53.151Z,27.23
2022-08-27T13:13:22.571Z,27.22
2022-08-27T13:16:01.687Z,27.16
2022-08-27T13:18:30.015Z,27.05
2022-08-27T13:21:02.451Z,26.88
2022-08-27T13:23:30.519Z,26.72
2022-08-27T13:26:03.133Z,26.39
2022-08-27T13:28:31.061Z,26.10
2022-08-27T13:30:59.473Z,25.80
2022-08-27T13:33:28.357Z,25.63
2022-08-27T13:35:57.588Z,25.53
2022-08-27T13:38:26.367Z,25.43
2022-08-27T13:41:06.324Z,25.40
2022-08-27T13:43:35.537Z,25.30
2022-08-27T13:46:07.427Z,25.14
2022-08-27T13:48:35.390Z,25.03
2022-08-27T13:51:03.509Z,24.96
2022-08-27T13:53:50.512Z,24.92
2022-08-27T13:56:25.019Z,24.96
2022-08-27T13:58:52.566Z,25.14
2022-08-27T14:01:28.220Z,25.30
2022-08-27T14:03:58.026Z,25.46
2022-08-27T14:06:31.974Z,25.72
2022-08-27T14:09:15.334Z,25.68
2022-08-27T14:11:43.540Z,25.46
2022-08-27T14:14:10.563Z,25.38
2022-08-27T14:16:38.109Z,25.25
2022-08-27T14:19:08.981Z,25.06
2022-08-27T14:21:37.226Z,24.90
2022-08-27T14:24:04.777Z,24.81
2022-08-27T14:26:31.939Z,24.74
2022-08-27T14:28:59.574Z,24.82
2022-08-27T14:31:27.583Z,24.81
2022-08-27T14:33:54.897Z,24.86
2022-08-27T14:36:23.008Z,24.87
2022-08-27T14:38:51.970Z,24.82
2022-08-27T14:41:21.585Z,24.84
2022-08-27T14:43:49.784Z,24.84
2022-08-27T14:46:20.040Z,24.89
2022-08-27T14:48:51.503Z,24.84
2022-08-27T14:51:22.333Z,24.95
2022-08-27T14:53:51.502Z,24.97
2022-08-27T14:56:18.781Z,24.98
2022-08-27T14:58:46.330Z,24.95
2022-08-27T15:01:14.206Z,24.95
2022-08-27T15:03:48.170Z,24.93
2022-08-27T15:06:16.288Z,24.89
2022-08-27T15:08:44.719Z,24.97
2022-08-27T15:11:14.966Z,24.97
2022-08-27T15:13:42.318Z,24.99
2022-08-27T15:16:09.461Z,24.93
2022-08-27T15:18:36.888Z,24.93
2022-08-27T15:21:04.586Z,24.98
2022-08-27T15:23:31.990Z,24.87
2022-08-27T15:25:59.080Z,24.85
2022-08-27T15:28:26.517Z,24.87
2022-08-27T15:30:53.652Z,24.89
2022-08-27T15:33:21.566Z,24.89
2022-08-27T15:35:48.950Z,24.87
2022-08-27T15:38:15.862Z,24.79
2022-08-27T15:40:42.792Z,24.71
2022-08-27T15:43:10.557Z,24.62
2022-08-27T15:45:37.867Z,24.57
2022-08-27T15:48:04.992Z,24.45
2022-08-27T15:50:32.840Z,24.37
2022-08-27T15:53:01.891Z,24.36
2022-08-27T15:55:31.045Z,24.26
2022-08-27T15:58:00.179Z,24.20
2022-08-27T16:00:28.607Z,24.12
2022-08-27T16:02:56.293Z,24.06
2022-08-27T16:05:23.837Z,23.97
2022-08-27T16:07:50.738Z,23.80
2022-08-27T16:10:18.026Z,23.77
2022-08-27T16:12:46.273Z,23.73
2022-08-27T16:15:14.427Z,23.67
2022-08-27T16:17:42.077Z,23.55
2022-08-27T16:20:10.964Z,23.54
2022-08-27T16:22:38.379Z,23.49
2022-08-27T16:25:06.430Z,23.48
2022-08-27T16:27:34.071Z,23.46
2022-08-27T16:30:01.102Z,23.44
2022-08-27T16:32:31.994Z,23.45
2022-08-27T16:35:00.694Z,23.51
2022-08-27T16:37:27.604Z,23.49
2022-08-27T16:39:54.731Z,23.44
2022-08-27T16:42:22.355Z,23.45
2022-08-27T16:44:49.310Z,23.42
2022-08-27T16:47:16.691Z,23.41
2022-08-27T16:50:02.618Z,23.44
2022-08-27T16:52:30.644Z,23.44
2022-08-27T16:54:57.725Z,23.45
2022-08-27T16:57:24.742Z,23.41
2022-08-27T16:59:51.771Z,23.38
2022-08-27T17:02:30.363Z,23.35
2022-08-27T17:05:07.379Z,23.30
2022-08-27T17:07:46.171Z,23.30
2022-08-27T17:10:17.657Z,23.22
2022-08-27T17:12:47.409Z,23.12
2022-08-27T17:15:17.994Z,23.07
2022-08-27T17:17:47.465Z,23.02
2022-08-27T17:20:18.260Z,22.97
2022-08-27T17:22:46.041Z,22.94
2022-08-27T17:25:15.240Z,22.92
2022-08-27T17:27:43.736Z,22.91
2022-08-27T17:30:11.847Z,22.82
2022-08-27T17:32:40.305Z,22.79
2022-08-27T17:35:09.565Z,22.73
2022-08-27T17:37:37.805Z,22.68
2022-08-27T17:40:06.204Z,22.62
2022-08-27T17:42:34.562Z,22.56
2022-08-27T17:45:02.920Z,22.51
2022-08-27T17:47:31.425Z,22.47
2022-08-27T17:50:00.187Z,22.43
2022-08-27T17:52:27.889Z,22.40
2022-08-27T17:54:56.961Z,22.35
2022-08-27T17:57:24.258Z,22.31
2022-08-27T17:59:52.316Z,22.23
2022-08-27T18:02:31.397Z,22.21
2022-08-27T18:04:59.306Z,22.13
2022-08-27T18:07:26.865Z,22.12
2022-08-27T18:09:54.091Z,22.11
2022-08-27T18:12:23.905Z,22.05
2022-08-27T18:15:17.923Z,22.05
2022-08-27T18:17:46.048Z,21.94
2022-08-27T18:20:15.215Z,21.85
2022-08-27T18:22:48.907Z,21.85
2022-08-27T18:25:19.070Z,21.90
2022-08-27T18:27:49.126Z,21.86
2022-08-27T18:30:17.512Z,21.77
2022-08-27T18:32:46.276Z,21.74
2022-08-27T18:35:19.515Z,21.69
2022-08-27T18:37:48.439Z,21.57
2022-08-27T18:40:16.610Z,21.61
2022-08-27T18:42:45.085Z,21.58
2022-08-27T18:45:17.501Z,21.54
2022-08-27T18:47:47.541Z,21.49
2022-08-27T18:50:20.064Z,21.48
2022-08-27T18:52:49.666Z,21.37
2022-08-27T18:55:20.158Z,21.30
2022-08-27T18:57:48.093Z,21.26
2022-08-27T19:00:16.771Z,21.18
2022-08-27T19:02:47.847Z,21.15
2022-08-27T19:05:22.723Z,21.12
2022-08-27T19:07:51.004Z,21.00
2022-08-27T19:10:19.390Z,20.84
2022-08-27T19:12:48.965Z,20.86
2022-08-27T19:15:17.331Z,20.76
2022-08-27T19:17:49.114Z,20.71
2022-08-27T19:20:19.805Z,20.66
2022-08-27T19:22:48.000Z,20.60
2022-08-27T19:25:16.597Z,20.62
2022-08-27T19:27:47.151Z,20.60
2022-08-27T19:30:15.971Z,20.47
2022-08-27T19:32:43.313Z,20.51
2022-08-27T19:35:10.700Z,20.48
2022-08-27T19:37:39.756Z,20.32
2022-08-27T19:40:09.699Z,20.34
2022-08-27T19:42:37.606Z,20.42
2022-08-27T19:45:05.750Z,20.44
2022-08-27T19:47:33.067Z,20.45
2022-08-27T19:50:00.480Z,20.26
2022-08-27T19:52:27.483Z,20.17
2022-08-27T19:55:13.128Z,20.09
2022-08-27T19:57:42.333Z,19.98
2022-08-27T20:00:10.157Z,19.94
2022-08-27T20:02:37.546Z,19.97
2022-08-27T20:05:21.106Z,19.99
2022-08-27T20:07:50.007Z,19.89
2022-08-27T20:10:18.885Z,19.76
2022-08-27T20:12:46.556Z,19.63
2022-08-27T20:15:14.006Z,19.58
2022-08-27T20:17:43.209Z,19.66
2022-08-27T20:20:11.463Z,19.56
2022-08-27T20:22:39.888Z,19.58
2022-08-27T20:25:08.070Z,19.61
2022-08-27T20:27:35.588Z,19.44
2022-08-27T20:30:04.978Z,19.56
2022-08-27T20:32:32.643Z,19.62
2022-08-27T20:34:59.558Z,19.54
2022-08-27T20:37:26.513Z,19.58
2022-08-27T20:39:53.954Z,19.68
2022-08-27T20:42:20.964Z,19.52
2022-08-27T20:44:48.459Z,19.40
2022-08-27T20:47:16.142Z,19.36
2022-08-27T20:49:44.845Z,19.43
2022-08-27T20:52:13.260Z,19.45
2022-08-27T20:54:41.022Z,19.31
2022-08-27T20:57:09.227Z,19.44
2022-08-27T20:59:54.799Z,19.41
2022-08-27T21:02:24.260Z,19.39
2022-08-27T21:04:51.967Z,19.41
2022-08-27T21:07:20.221Z,19.40
2022-08-27T21:09:56.162Z,19.42
2022-08-27T21:12:25.957Z,19.38
2022-08-27T21:14:54.948Z,19.39
2022-08-27T21:17:25.274Z,19.36
2022-08-27T21:19:52.430Z,19.25
2022-08-27T21:22:20.311Z,19.17
2022-08-27T21:24:47.810Z,19.16
2022-08-27T21:27:15.357Z,19.18
2022-08-27T21:29:45.034Z,19.22
2022-08-27T21:32:12.928Z,19.24
2022-08-27T21:34:39.958Z,19.28
2022-08-27T21:37:07.486Z,19.14
2022-08-27T21:39:34.578Z,19.06
2022-08-27T21:42:02.093Z,19.13
2022-08-27T21:44:29.970Z,19.19
2022-08-27T21:46:57.708Z,19.03
2022-08-27T21:49:24.899Z,19.01
2022-08-27T21:51:52.729Z,19.00
2022-08-27T21:54:19.816Z,18.89
2022-08-27T21:56:50.390Z,18.98
2022-08-27T21:59:17.594Z,18.96
2022-08-27T22:01:44.523Z,18.98
2022-08-27T22:04:11.441Z,18.88
2022-08-27T22:06:38.584Z,18.83
2022-08-27T22:09:05.937Z,18.82
2022-08-27T22:11:32.725Z,18.80
2022-08-27T22:13:59.891Z,18.76
2022-08-27T22:16:27.049Z,18.70
2022-08-27T22:18:54.998Z,18.74
2022-08-27T22:21:25.490Z,18.68
2022-08-27T22:23:52.641Z,18.71
2022-08-27T22:26:20.443Z,18.73
2022-08-27T22:28:47.727Z,18.56
2022-08-27T22:31:15.199Z,18.52
2022-08-27T22:33:42.649Z,18.53
2022-08-27T22:36:10.015Z,18.52
2022-08-27T22:38:36.953Z,18.56
2022-08-27T22:41:04.071Z,18.59
2022-08-27T22:43:31.432Z,18.52
2022-08-27T22:45:58.402Z,18.51
2022-08-27T22:48:25.269Z,18.58
2022-08-27T22:50:52.417Z,18.50
2022-08-27T22:53:19.561Z,18.36
2022-08-27T22:55:50.060Z,18.40
2022-08-27T22:58:18.167Z,18.37
2022-08-27T23:00:52.168Z,18.45
2022-08-27T23:03:20.574Z,18.48
2022-08-27T23:05:47.735Z,18.39
2022-08-27T23:08:15.570Z,18.55
2022-08-27T23:10:43.611Z,18.54
2022-08-27T23:13:11.505Z,18.59
2022-08-27T23:15:39.430Z,18.51
2022-08-27T23:18:06.787Z,18.57
2022-08-27T23:20:34.534Z,18.51
2022-08-27T23:23:02.691Z,18.54
2022-08-27T23:25:48.507Z,18.60
2022-08-27T23:28:15.915Z,18.40
2022-08-27T23:30:44.314Z,18.47
2022-08-27T23:33:11.892Z,18.41
2022-08-27T23:35:38.993Z,18.38
2022-08-27T23:38:06.211Z,18.47
2022-08-27T23:40:33.391Z,18.54
2022-08-27T23:43:00.854Z,18.58
2022-08-27T23:45:28.246Z,18.59
2022-08-27T23:47:55.173Z,18.66
2022-08-27T23:50:33.667Z,18.73
2022-08-27T23:53:02.619Z,18.69
2022-08-27T23:55:30.176Z,18.75
2022-08-27T23:58:00.428Z,18.74
